sensor_id;sensor_type;location;lat;lon;timestamp;P1;durP1;ratioP1;P2;durP2;ratioP2
23290;SDS011;11814;44.686;10.842;2022-07-06T00:02:08;6.85;;;4.07;;
23290;SDS011;11814;44.686;10.842;2022-07-06T00:04:34;11.70;;;4.18;;
23290;SDS011;11814;44.686;10.842;2022-07-06T00:07:06;6.07;;;4.25;;
23290;SDS011;11814;44.686;10.842;2022-07-06T00:09:32;7.97;;;4.30;;
23290;SDS011;11814;44.686;10.842;2022-07-06T00:12:01;8.73;;;4.00;;
23290;SDS011;11814;44.686;10.842;2022-07-06T00:14:32;7.70;;;3.70;;
23290;SDS011;11814;44.686;10.842;2022-07-06T00:17:00;7.05;;;3.40;;
23290;SDS011;11814;44.686;10.842;2022-07-06T00:19:26;6.88;;;3.72;;
23290;SDS011;11814;44.686;10.842;2022-07-06T00:22:00;6.47;;;3.63;;
23290;SDS011;11814;44.686;10.842;2022-07-06T00:24:26;5.90;;;3.13;;
23290;SDS011;11814;44.686;10.842;2022-07-06T00:26:55;4.95;;;2.60;;
23290;SDS011;11814;44.686;10.842;2022-07-06T00:29:20;11.48;;;3.17;;
23290;SDS011;11814;44.686;10.842;2022-07-06T00:31:46;5.32;;;2.80;;
23290;SDS011;11814;44.686;10.842;2022-07-06T00:34:13;6.15;;;2.58;;
23290;SDS011;11814;44.686;10.842;2022-07-06T00:36:47;4.15;;;2.63;;
23290;SDS011;11814;44.686;10.842;2022-07-06T00:39:22;8.05;;;2.83;;
23290;SDS011;11814;44.686;10.842;2022-07-06T00:41:57;4.10;;;2.25;;
23290;SDS011;11814;44.686;10.842;2022-07-06T00:44:22;3.47;;;2.17;;
23290;SDS011;11814;44.686;10.842;2022-07-06T00:46:51;5.05;;;2.10;;
23290;SDS011;11814;44.686;10.842;2022-07-06T00:49:17;6.32;;;1.98;;
23290;SDS011;11814;44.686;10.842;2022-07-06T00:52:05;6.68;;;2.13;;
23290;SDS011;11814;44.686;10.842;2022-07-06T00:54:31;4.57;;;1.85;;
23290;SDS011;11814;44.686;10.842;2022-07-06T00:57:00;5.65;;;2.20;;
23290;SDS011;11814;44.686;10.842;2022-07-06T00:59:32;6.20;;;2.38;;
23290;SDS011;11814;44.686;10.842;2022-07-06T01:02:10;8.95;;;1.98;;
23290;SDS011;11814;44.686;10.842;2022-07-06T01:04:38;4.78;;;1.95;;
23290;SDS011;11814;44.686;10.842;2022-07-06T01:07:07;4.95;;;1.90;;
23290;SDS011;11814;44.686;10.842;2022-07-06T01:09:36;5.95;;;2.03;;
23290;SDS011;11814;44.686;10.842;2022-07-06T01:12:01;3.90;;;1.73;;
23290;SDS011;11814;44.686;10.842;2022-07-06T01:14:34;4.55;;;1.85;;
23290;SDS011;11814;44.686;10.842;2022-07-06T01:17:07;4.50;;;2.20;;
23290;SDS011;11814;44.686;10.842;2022-07-06T01:19:33;2.85;;;1.75;;
23290;SDS011;11814;44.686;10.842;2022-07-06T01:21:59;5.00;;;2.08;;
23290;SDS011;11814;44.686;10.842;2022-07-06T01:27:19;4.20;;;1.75;;
23290;SDS011;11814;44.686;10.842;2022-07-06T01:29:45;5.32;;;1.65;;
23290;SDS011;11814;44.686;10.842;2022-07-06T01:32:10;6.25;;;1.88;;
23290;SDS011;11814;44.686;10.842;2022-07-06T01:34:36;3.35;;;1.40;;
23290;SDS011;11814;44.686;10.842;2022-07-06T01:37:05;5.72;;;1.52;;
23290;SDS011;11814;44.686;10.842;2022-07-06T01:39:31;3.85;;;1.70;;
23290;SDS011;11814;44.686;10.842;2022-07-06T01:41:59;5.30;;;1.90;;
23290;SDS011;11814;44.686;10.842;2022-07-06T01:44:25;8.80;;;1.65;;
23290;SDS011;11814;44.686;10.842;2022-07-06T01:46:51;2.38;;;1.40;;
23290;SDS011;11814;44.686;10.842;2022-07-06T01:49:31;7.43;;;1.80;;
23290;SDS011;11814;44.686;10.842;2022-07-06T01:51:59;1.75;;;1.30;;
23290;SDS011;11814;44.686;10.842;2022-07-06T01:54:28;6.53;;;1.58;;
23290;SDS011;11814;44.686;10.842;2022-07-06T01:57:03;3.47;;;1.42;;
23290;SDS011;11814;44.686;10.842;2022-07-06T01:59:52;5.10;;;1.58;;
23290;SDS011;11814;44.686;10.842;2022-07-06T02:02:20;3.28;;;1.27;;
23290;SDS011;11814;44.686;10.842;2022-07-06T02:04:54;6.25;;;1.45;;
23290;SDS011;11814;44.686;10.842;2022-07-06T02:07:20;3.35;;;1.40;;
23290;SDS011;11814;44.686;10.842;2022-07-06T02:09:55;3.78;;;1.33;;
23290;SDS011;11814;44.686;10.842;2022-07-06T02:12:23;4.43;;;1.15;;
23290;SDS011;11814;44.686;10.842;2022-07-06T02:14:52;1.80;;;1.20;;
23290;SDS011;11814;44.686;10.842;2022-07-06T02:17:21;6.65;;;1.08;;
23290;SDS011;11814;44.686;10.842;2022-07-06T02:19:46;5.70;;;1.40;;
23290;SDS011;11814;44.686;10.842;2022-07-06T02:22:17;4.75;;;1.38;;
23290;SDS011;11814;44.686;10.842;2022-07-06T02:24:43;5.72;;;1.38;;
23290;SDS011;11814;44.686;10.842;2022-07-06T02:27:09;2.97;;;1.25;;
23290;SDS011;11814;44.686;10.842;2022-07-06T02:29:37;4.28;;;0.95;;
23290;SDS011;11814;44.686;10.842;2022-07-06T02:32:03;4.15;;;1.38;;
23290;SDS011;11814;44.686;10.842;2022-07-06T02:34:29;3.85;;;1.40;;
23290;SDS011;11814;44.686;10.842;2022-07-06T02:36:59;4.88;;;1.55;;
23290;SDS011;11814;44.686;10.842;2022-07-06T02:39:28;6.85;;;1.70;;
23290;SDS011;11814;44.686;10.842;2022-07-06T02:41:57;5.40;;;1.55;;
23290;SDS011;11814;44.686;10.842;2022-07-06T02:44:28;3.83;;;1.42;;
23290;SDS011;11814;44.686;10.842;2022-07-06T02:46:53;3.17;;;1.30;;
23290;SDS011;11814;44.686;10.842;2022-07-06T02:49:19;7.18;;;1.30;;
23290;SDS011;11814;44.686;10.842;2022-07-06T02:51:45;1.58;;;0.95;;
23290;SDS011;11814;44.686;10.842;2022-07-06T02:54:16;3.58;;;1.27;;
23290;SDS011;11814;44.686;10.842;2022-07-06T02:56:41;5.75;;;1.17;;
23290;SDS011;11814;44.686;10.842;2022-07-06T02:59:07;4.30;;;1.23;;
23290;SDS011;11814;44.686;10.842;2022-07-06T03:01:46;4.22;;;1.13;;
23290;SDS011;11814;44.686;10.842;2022-07-06T03:04:17;11.13;;;1.38;;
23290;SDS011;11814;44.686;10.842;2022-07-06T03:06:46;11.48;;;1.58;;
23290;SDS011;11814;44.686;10.842;2022-07-06T03:09:12;2.40;;;1.33;;
23290;SDS011;11814;44.686;10.842;2022-07-06T03:11:38;3.65;;;1.10;;
23290;SDS011;11814;44.686;10.842;2022-07-06T03:14:09;3.45;;;1.17;;
23290;SDS011;11814;44.686;10.842;2022-07-06T03:16:49;5.15;;;1.30;;
23290;SDS011;11814;44.686;10.842;2022-07-06T03:19:20;4.38;;;1.35;;
23290;SDS011;11814;44.686;10.842;2022-07-06T03:21:49;4.93;;;1.30;;
23290;SDS011;11814;44.686;10.842;2022-07-06T03:24:23;8.30;;;1.30;;
23290;SDS011;11814;44.686;10.842;2022-07-06T03:26:52;3.70;;;1.33;;
23290;SDS011;11814;44.686;10.842;2022-07-06T03:29:18;6.93;;;1.38;;
23290;SDS011;11814;44.686;10.842;2022-07-06T03:31:45;1.90;;;0.95;;
23290;SDS011;11814;44.686;10.842;2022-07-06T03:34:13;3.97;;;1.40;;
23290;SDS011;11814;44.686;10.842;2022-07-06T03:36:47;4.95;;;1.50;;
23290;SDS011;11814;44.686;10.842;2022-07-06T03:39:19;7.15;;;1.27;;
23290;SDS011;11814;44.686;10.842;2022-07-06T03:42:02;3.70;;;1.40;;
23290;SDS011;11814;44.686;10.842;2022-07-06T03:44:31;4.28;;;1.33;;
23290;SDS011;11814;44.686;10.842;2022-07-06T03:46:56;5.60;;;1.40;;
23290;SDS011;11814;44.686;10.842;2022-07-06T03:49:22;5.10;;;1.30;;
23290;SDS011;11814;44.686;10.842;2022-07-06T03:51:51;5.68;;;1.17;;
23290;SDS011;11814;44.686;10.842;2022-07-06T03:54:17;4.72;;;1.40;;
23290;SDS011;11814;44.686;10.842;2022-07-06T03:56:43;2.90;;;1.10;;
23290;SDS011;11814;44.686;10.842;2022-07-06T03:59:16;3.72;;;1.40;;
23290;SDS011;11814;44.686;10.842;2022-07-06T04:01:42;4.45;;;1.50;;
23290;SDS011;11814;44.686;10.842;2022-07-06T04:04:29;4.93;;;1.40;;
23290;SDS011;11814;44.686;10.842;2022-07-06T04:06:54;3.03;;;1.20;;
23290;SDS011;11814;44.686;10.842;2022-07-06T04:09:20;3.92;;;1.40;;
23290;SDS011;11814;44.686;10.842;2022-07-06T04:11:48;1.25;;;1.05;;
23290;SDS011;11814;44.686;10.842;2022-07-06T04:14:14;1.70;;;1.00;;
23290;SDS011;11814;44.686;10.842;2022-07-06T04:16:39;2.58;;;1.10;;
23290;SDS011;11814;44.686;10.842;2022-07-06T04:19:08;4.28;;;1.20;;
23290;SDS011;11814;44.686;10.842;2022-07-06T04:21:36;6.38;;;1.20;;
23290;SDS011;11814;44.686;10.842;2022-07-06T04:24:02;4.40;;;1.13;;
23290;SDS011;11814;44.686;10.842;2022-07-06T04:26:31;4.80;;;1.50;;
23290;SDS011;11814;44.686;10.842;2022-07-06T04:28:57;3.53;;;1.10;;
23290;SDS011;11814;44.686;10.842;2022-07-06T04:31:23;1.98;;;1.20;;
23290;SDS011;11814;44.686;10.842;2022-07-06T04:33:48;2.50;;;1.30;;
23290;SDS011;11814;44.686;10.842;2022-07-06T04:36:14;5.70;;;1.10;;
23290;SDS011;11814;44.686;10.842;2022-07-06T04:38:45;1.92;;;1.05;;
23290;SDS011;11814;44.686;10.842;2022-07-06T04:41:14;3.92;;;1.10;;
23290;SDS011;11814;44.686;10.842;2022-07-06T04:43:40;4.88;;;0.95;;
23290;SDS011;11814;44.686;10.842;2022-07-06T04:46:09;5.53;;;0.90;;
23290;SDS011;11814;44.686;10.842;2022-07-06T04:48:40;4.07;;;0.93;;
23290;SDS011;11814;44.686;10.842;2022-07-06T04:51:09;2.00;;;1.00;;
23290;SDS011;11814;44.686;10.842;2022-07-06T04:53:44;2.05;;;0.93;;
23290;SDS011;11814;44.686;10.842;2022-07-06T04:56:10;3.00;;;0.90;;
23290;SDS011;11814;44.686;10.842;2022-07-06T04:58:36;3.70;;;0.93;;
23290;SDS011;11814;44.686;10.842;2022-07-06T05:01:02;4.00;;;1.00;;
23290;SDS011;11814;44.686;10.842;2022-07-06T05:03:30;1.88;;;0.77;;
23290;SDS011;11814;44.686;10.842;2022-07-06T05:05:56;3.13;;;0.95;;
23290;SDS011;11814;44.686;10.842;2022-07-06T05:08:22;3.72;;;0.75;;
23290;SDS011;11814;44.686;10.842;2022-07-06T05:10:48;0.73;;;0.52;;
23290;SDS011;11814;44.686;10.842;2022-07-06T05:13:17;2.17;;;0.63;;
23290;SDS011;11814;44.686;10.842;2022-07-06T05:15:43;3.63;;;0.75;;
23290;SDS011;11814;44.686;10.842;2022-07-06T05:18:09;6.10;;;0.80;;
23290;SDS011;11814;44.686;10.842;2022-07-06T05:20:40;3.05;;;0.70;;
23290;SDS011;11814;44.686;10.842;2022-07-06T05:23:05;6.03;;;0.70;;
23290;SDS011;11814;44.686;10.842;2022-07-06T05:25:31;8.77;;;1.00;;
23290;SDS011;11814;44.686;10.842;2022-07-06T05:27:58;4.85;;;0.85;;
23290;SDS011;11814;44.686;10.842;2022-07-06T05:30:30;7.35;;;0.73;;
23290;SDS011;11814;44.686;10.842;2022-07-06T05:32:55;2.50;;;0.73;;
23290;SDS011;11814;44.686;10.842;2022-07-06T05:35:23;6.65;;;0.80;;
23290;SDS011;11814;44.686;10.842;2022-07-06T05:37:52;4.00;;;0.90;;
23290;SDS011;11814;44.686;10.842;2022-07-06T05:40:21;2.78;;;0.95;;
23290;SDS011;11814;44.686;10.842;2022-07-06T05:42:49;3.30;;;0.73;;
23290;SDS011;11814;44.686;10.842;2022-07-06T05:45:15;6.75;;;0.70;;
23290;SDS011;11814;44.686;10.842;2022-07-06T05:47:43;2.00;;;0.73;;
23290;SDS011;11814;44.686;10.842;2022-07-06T05:50:30;3.80;;;0.80;;
23290;SDS011;11814;44.686;10.842;2022-07-06T05:53:03;2.58;;;0.80;;
23290;SDS011;11814;44.686;10.842;2022-07-06T05:55:30;5.82;;;0.80;;
23290;SDS011;11814;44.686;10.842;2022-07-06T05:57:56;4.13;;;0.85;;
23290;SDS011;11814;44.686;10.842;2022-07-06T06:00:27;8.57;;;0.80;;
23290;SDS011;11814;44.686;10.842;2022-07-06T06:02:53;3.85;;;0.80;;
23290;SDS011;11814;44.686;10.842;2022-07-06T06:05:31;5.60;;;1.00;;
23290;SDS011;11814;44.686;10.842;2022-07-06T06:08:00;3.90;;;0.95;;
23290;SDS011;11814;44.686;10.842;2022-07-06T06:10:34;3.35;;;0.52;;
23290;SDS011;11814;44.686;10.842;2022-07-06T06:13:02;2.67;;;0.90;;
23290;SDS011;11814;44.686;10.842;2022-07-06T06:15:37;3.35;;;0.55;;
23290;SDS011;11814;44.686;10.842;2022-07-06T06:18:03;5.95;;;0.80;;
23290;SDS011;11814;44.686;10.842;2022-07-06T06:20:37;2.28;;;0.52;;
23290;SDS011;11814;44.686;10.842;2022-07-06T06:23:09;4.78;;;0.70;;
23290;SDS011;11814;44.686;10.842;2022-07-06T06:25:39;3.78;;;0.73;;
23290;SDS011;11814;44.686;10.842;2022-07-06T06:28:05;10.57;;;0.85;;
23290;SDS011;11814;44.686;10.842;2022-07-06T06:30:32;2.30;;;0.75;;
23290;SDS011;11814;44.686;10.842;2022-07-06T06:33:05;5.72;;;0.80;;
23290;SDS011;11814;44.686;10.842;2022-07-06T06:35:44;4.32;;;0.90;;
23290;SDS011;11814;44.686;10.842;2022-07-06T06:38:17;3.05;;;0.55;;
23290;SDS011;11814;44.686;10.842;2022-07-06T06:40:43;4.82;;;0.60;;
23290;SDS011;11814;44.686;10.842;2022-07-06T06:43:09;2.20;;;0.52;;
23290;SDS011;11814;44.686;10.842;2022-07-06T06:45:41;5.38;;;0.55;;
23290;SDS011;11814;44.686;10.842;2022-07-06T06:48:06;4.75;;;0.73;;
23290;SDS011;11814;44.686;10.842;2022-07-06T06:50:41;4.80;;;0.50;;
23290;SDS011;11814;44.686;10.842;2022-07-06T06:53:07;1.90;;;0.50;;
23290;SDS011;11814;44.686;10.842;2022-07-06T06:55:32;1.35;;;0.57;;
23290;SDS011;11814;44.686;10.842;2022-07-06T06:57:58;1.75;;;0.50;;
23290;SDS011;11814;44.686;10.842;2022-07-06T07:00:26;1.48;;;0.47;;
23290;SDS011;11814;44.686;10.842;2022-07-06T07:02:55;3.80;;;0.68;;
23290;SDS011;11814;44.686;10.842;2022-07-06T07:05:39;2.90;;;0.75;;
23290;SDS011;11814;44.686;10.842;2022-07-06T07:08:05;2.03;;;0.60;;
23290;SDS011;11814;44.686;10.842;2022-07-06T07:10:33;3.03;;;0.73;;
23290;SDS011;11814;44.686;10.842;2022-07-06T07:12:59;3.35;;;0.70;;
23290;SDS011;11814;44.686;10.842;2022-07-06T07:15:28;4.68;;;0.65;;
23290;SDS011;11814;44.686;10.842;2022-07-06T07:17:57;6.35;;;0.73;;
23290;SDS011;11814;44.686;10.842;2022-07-06T07:20:29;3.97;;;0.60;;
23290;SDS011;11814;44.686;10.842;2022-07-06T07:22:55;1.90;;;0.57;;
23290;SDS011;11814;44.686;10.842;2022-07-06T07:25:24;4.85;;;0.68;;
23290;SDS011;11814;44.686;10.842;2022-07-06T07:27:50;3.13;;;0.93;;
23290;SDS011;11814;44.686;10.842;2022-07-06T07:30:25;5.95;;;1.05;;
23290;SDS011;11814;44.686;10.842;2022-07-06T07:32:53;3.17;;;0.70;;
23290;SDS011;11814;44.686;10.842;2022-07-06T07:35:20;2.63;;;0.60;;
23290;SDS011;11814;44.686;10.842;2022-07-06T07:37:47;5.13;;;0.95;;
23290;SDS011;11814;44.686;10.842;2022-07-06T07:40:12;2.65;;;0.80;;
23290;SDS011;11814;44.686;10.842;2022-07-06T07:42:40;3.08;;;0.68;;
23290;SDS011;11814;44.686;10.842;2022-07-06T07:45:10;6.43;;;0.90;;
23290;SDS011;11814;44.686;10.842;2022-07-06T07:47:37;2.25;;;0.68;;
23290;SDS011;11814;44.686;10.842;2022-07-06T07:50:08;3.95;;;0.85;;
23290;SDS011;11814;44.686;10.842;2022-07-06T07:52:40;3.05;;;0.70;;
23290;SDS011;11814;44.686;10.842;2022-07-06T07:55:14;3.33;;;0.75;;
23290;SDS011;11814;44.686;10.842;2022-07-06T07:57:40;3.60;;;0.90;;
23290;SDS011;11814;44.686;10.842;2022-07-06T08:00:08;4.05;;;1.10;;
23290;SDS011;11814;44.686;10.842;2022-07-06T08:02:40;3.95;;;0.90;;
23290;SDS011;11814;44.686;10.842;2022-07-06T08:05:06;3.72;;;0.80;;
23290;SDS011;11814;44.686;10.842;2022-07-06T08:07:38;5.40;;;1.00;;
23290;SDS011;11814;44.686;10.842;2022-07-06T08:10:12;3.08;;;0.88;;
23290;SDS011;11814;44.686;10.842;2022-07-06T08:12:38;5.68;;;1.20;;
23290;SDS011;11814;44.686;10.842;2022-07-06T08:15:06;6.03;;;1.35;;
23290;SDS011;11814;44.686;10.842;2022-07-06T08:17:32;8.05;;;1.10;;
23290;SDS011;11814;44.686;10.842;2022-07-06T08:20:00;1.40;;;0.73;;
23290;SDS011;11814;44.686;10.842;2022-07-06T08:22:26;6.38;;;1.38;;
23290;SDS011;11814;44.686;10.842;2022-07-06T08:24:54;2.80;;;1.00;;
23290;SDS011;11814;44.686;10.842;2022-07-06T08:27:23;5.53;;;1.30;;
23290;SDS011;11814;44.686;10.842;2022-07-06T08:29:49;4.88;;;1.63;;
23290;SDS011;11814;44.686;10.842;2022-07-06T08:32:20;5.60;;;1.27;;
23290;SDS011;11814;44.686;10.842;2022-07-06T08:34:51;3.65;;;1.25;;
23290;SDS011;11814;44.686;10.842;2022-07-06T08:37:20;3.95;;;1.50;;
23290;SDS011;11814;44.686;10.842;2022-07-06T08:39:48;5.40;;;1.30;;
23290;SDS011;11814;44.686;10.842;2022-07-06T08:42:16;6.07;;;1.25;;
23290;SDS011;11814;44.686;10.842;2022-07-06T08:45:02;10.52;;;1.48;;
23290;SDS011;11814;44.686;10.842;2022-07-06T08:47:36;4.53;;;1.40;;
23290;SDS011;11814;44.686;10.842;2022-07-06T08:50:13;4.97;;;1.35;;
23290;SDS011;11814;44.686;10.842;2022-07-06T08:52:45;8.13;;;1.40;;
23290;SDS011;11814;44.686;10.842;2022-07-06T08:55:16;8.02;;;1.58;;
23290;SDS011;11814;44.686;10.842;2022-07-06T08:57:45;4.20;;;1.20;;
23290;SDS011;11814;44.686;10.842;2022-07-06T09:00:12;3.92;;;1.33;;
23290;SDS011;11814;44.686;10.842;2022-07-06T09:02:39;4.93;;;1.13;;
23290;SDS011;11814;44.686;10.842;2022-07-06T09:05:06;3.67;;;1.15;;
23290;SDS011;11814;44.686;10.842;2022-07-06T09:07:33;5.18;;;1.48;;
23290;SDS011;11814;44.686;10.842;2022-07-06T09:10:10;3.05;;;1.40;;
23290;SDS011;11814;44.686;10.842;2022-07-06T09:12:39;4.88;;;1.40;;
23290;SDS011;11814;44.686;10.842;2022-07-06T09:15:05;4.15;;;1.10;;
23290;SDS011;11814;44.686;10.842;2022-07-06T09:17:40;3.00;;;1.33;;
23290;SDS011;11814;44.686;10.842;2022-07-06T09:20:09;6.10;;;1.40;;
23290;SDS011;11814;44.686;10.842;2022-07-06T09:22:41;5.43;;;1.40;;
23290;SDS011;11814;44.686;10.842;2022-07-06T09:25:26;3.10;;;1.25;;
23290;SDS011;11814;44.686;10.842;2022-07-06T09:28:07;2.22;;;1.42;;
23290;SDS011;11814;44.686;10.842;2022-07-06T09:30:41;3.47;;;1.42;;
23290;SDS011;11814;44.686;10.842;2022-07-06T09:33:17;3.20;;;1.13;;
23290;SDS011;11814;44.686;10.842;2022-07-06T09:35:42;11.95;;;1.35;;
23290;SDS011;11814;44.686;10.842;2022-07-06T09:38:17;2.97;;;1.30;;
23290;SDS011;11814;44.686;10.842;2022-07-06T09:40:52;4.32;;;1.60;;
23290;SDS011;11814;44.686;10.842;2022-07-06T09:43:32;6.55;;;1.52;;
23290;SDS011;11814;44.686;10.842;2022-07-06T09:46:05;9.75;;;1.65;;
23290;SDS011;11814;44.686;10.842;2022-07-06T09:48:33;3.50;;;1.65;;
23290;SDS011;11814;44.686;10.842;2022-07-06T09:51:01;3.92;;;1.45;;
23290;SDS011;11814;44.686;10.842;2022-07-06T09:53:34;6.85;;;1.50;;
23290;SDS011;11814;44.686;10.842;2022-07-06T09:56:09;8.68;;;1.10;;
23290;SDS011;11814;44.686;10.842;2022-07-06T09:58:38;4.53;;;1.50;;
23290;SDS011;11814;44.686;10.842;2022-07-06T10:01:06;7.05;;;1.75;;
23290;SDS011;11814;44.686;10.842;2022-07-06T10:03:40;5.63;;;1.42;;
23290;SDS011;11814;44.686;10.842;2022-07-06T10:06:06;4.97;;;1.33;;
23290;SDS011;11814;44.686;10.842;2022-07-06T10:08:35;6.38;;;1.60;;
23290;SDS011;11814;44.686;10.842;2022-07-06T10:11:05;5.03;;;1.20;;
23290;SDS011;11814;44.686;10.842;2022-07-06T10:13:42;6.75;;;1.40;;
23290;SDS011;11814;44.686;10.842;2022-07-06T10:16:13;4.60;;;1.50;;
23290;SDS011;11814;44.686;10.842;2022-07-06T10:18:49;6.32;;;1.85;;
23290;SDS011;11814;44.686;10.842;2022-07-06T10:21:24;4.28;;;1.30;;
23290;SDS011;11814;44.686;10.842;2022-07-06T10:23:59;3.00;;;1.50;;
23290;SDS011;11814;44.686;10.842;2022-07-06T10:26:29;5.95;;;1.60;;
23290;SDS011;11814;44.686;10.842;2022-07-06T10:28:59;2.78;;;1.40;;
23290;SDS011;11814;44.686;10.842;2022-07-06T10:31:32;7.70;;;1.67;;
23290;SDS011;11814;44.686;10.842;2022-07-06T10:34:01;4.95;;;1.48;;
23290;SDS011;11814;44.686;10.842;2022-07-06T10:36:30;5.35;;;1.35;;
23290;SDS011;11814;44.686;10.842;2022-07-06T10:39:08;5.43;;;1.33;;
23290;SDS011;11814;44.686;10.842;2022-07-06T10:41:53;8.05;;;1.88;;
23290;SDS011;11814;44.686;10.842;2022-07-06T10:44:23;4.28;;;1.60;;
23290;SDS011;11814;44.686;10.842;2022-07-06T10:47:10;9.70;;;1.63;;
23290;SDS011;11814;44.686;10.842;2022-07-06T10:49:48;6.28;;;1.23;;
23290;SDS011;11814;44.686;10.842;2022-07-06T10:55:41;5.43;;;1.50;;
23290;SDS011;11814;44.686;10.842;2022-07-06T11:01:18;3.78;;;1.30;;
23290;SDS011;11814;44.686;10.842;2022-07-06T11:03:49;4.75;;;1.55;;
23290;SDS011;11814;44.686;10.842;2022-07-06T11:06:34;7.45;;;1.40;;
23290;SDS011;11814;44.686;10.842;2022-07-06T11:09:10;5.00;;;1.50;;
23290;SDS011;11814;44.686;10.842;2022-07-06T11:12:11;5.65;;;1.80;;
23290;SDS011;11814;44.686;10.842;2022-07-06T11:14:44;3.83;;;1.85;;
23290;SDS011;11814;44.686;10.842;2022-07-06T11:17:11;7.05;;;1.73;;
23290;SDS011;11814;44.686;10.842;2022-07-06T11:19:50;3.97;;;1.52;;
23290;SDS011;11814;44.686;10.842;2022-07-06T11:22:23;5.20;;;1.50;;
23290;SDS011;11814;44.686;10.842;2022-07-06T11:24:51;7.00;;;1.80;;
23290;SDS011;11814;44.686;10.842;2022-07-06T11:27:17;4.45;;;1.85;;
23290;SDS011;11814;44.686;10.842;2022-07-06T11:29:43;5.18;;;1.70;;
23290;SDS011;11814;44.686;10.842;2022-07-06T11:32:10;2.45;;;1.35;;
23290;SDS011;11814;44.686;10.842;2022-07-06T11:34:42;6.60;;;1.35;;
23290;SDS011;11814;44.686;10.842;2022-07-06T11:37:15;5.00;;;1.65;;
23290;SDS011;11814;44.686;10.842;2022-07-06T11:39:48;5.72;;;1.63;;
23290;SDS011;11814;44.686;10.842;2022-07-06T11:42:19;4.72;;;1.60;;
23290;SDS011;11814;44.686;10.842;2022-07-06T11:44:48;7.68;;;1.58;;
23290;SDS011;11814;44.686;10.842;2022-07-06T11:47:21;5.32;;;1.65;;
23290;SDS011;11814;44.686;10.842;2022-07-06T11:50:02;6.80;;;1.83;;
23290;SDS011;11814;44.686;10.842;2022-07-06T11:52:34;6.13;;;1.73;;
23290;SDS011;11814;44.686;10.842;2022-07-06T11:54:59;3.47;;;1.35;;
23290;SDS011;11814;44.686;10.842;2022-07-06T11:57:33;6.88;;;1.67;;
23290;SDS011;11814;44.686;10.842;2022-07-06T12:00:03;8.68;;;1.42;;
23290;SDS011;11814;44.686;10.842;2022-07-06T12:02:57;3.90;;;1.50;;
23290;SDS011;11814;44.686;10.842;2022-07-06T12:05:30;3.00;;;1.23;;
23290;SDS011;11814;44.686;10.842;2022-07-06T12:08:08;3.30;;;1.42;;
23290;SDS011;11814;44.686;10.842;2022-07-06T12:10:36;6.30;;;1.70;;
23290;SDS011;11814;44.686;10.842;2022-07-06T12:13:05;4.22;;;1.60;;
23290;SDS011;11814;44.686;10.842;2022-07-06T12:15:31;6.50;;;1.48;;
23290;SDS011;11814;44.686;10.842;2022-07-06T12:18:05;3.42;;;1.30;;
23290;SDS011;11814;44.686;10.842;2022-07-06T12:20:31;4.70;;;1.30;;
23290;SDS011;11814;44.686;10.842;2022-07-06T12:23:03;2.95;;;1.20;;
23290;SDS011;11814;44.686;10.842;2022-07-06T12:25:33;3.88;;;1.17;;
23290;SDS011;11814;44.686;10.842;2022-07-06T12:28:21;4.22;;;1.38;;
23290;SDS011;11814;44.686;10.842;2022-07-06T12:30:47;4.82;;;1.50;;
23290;SDS011;11814;44.686;10.842;2022-07-06T12:33:14;4.20;;;1.38;;
23290;SDS011;11814;44.686;10.842;2022-07-06T12:35:43;4.35;;;1.40;;
23290;SDS011;11814;44.686;10.842;2022-07-06T12:38:12;2.33;;;1.20;;
23290;SDS011;11814;44.686;10.842;2022-07-06T12:40:40;2.88;;;1.20;;
23290;SDS011;11814;44.686;10.842;2022-07-06T12:43:11;4.88;;;1.38;;
23290;SDS011;11814;44.686;10.842;2022-07-06T12:45:36;3.90;;;1.38;;
23290;SDS011;11814;44.686;10.842;2022-07-06T12:48:10;5.45;;;1.30;;
23290;SDS011;11814;44.686;10.842;2022-07-06T12:50:36;3.08;;;1.25;;
23290;SDS011;11814;44.686;10.842;2022-07-06T12:53:45;3.75;;;1.30;;
23290;SDS011;11814;44.686;10.842;2022-07-06T12:56:10;4.63;;;1.40;;
23290;SDS011;11814;44.686;10.842;2022-07-06T12:58:56;5.60;;;1.15;;
23290;SDS011;11814;44.686;10.842;2022-07-06T13:01:26;4.78;;;1.23;;
23290;SDS011;11814;44.686;10.842;2022-07-06T13:03:55;2.92;;;1.17;;
23290;SDS011;11814;44.686;10.842;2022-07-06T13:06:34;6.85;;;1.00;;
23290;SDS011;11814;44.686;10.842;2022-07-06T13:09:10;5.35;;;1.25;;
23290;SDS011;11814;44.686;10.842;2022-07-06T13:11:38;3.17;;;1.35;;
23290;SDS011;11814;44.686;10.842;2022-07-06T13:14:15;2.75;;;1.38;;
23290;SDS011;11814;44.686;10.842;2022-07-06T13:16:46;3.35;;;1.02;;
23290;SDS011;11814;44.686;10.842;2022-07-06T13:19:18;1.63;;;0.90;;
23290;SDS011;11814;44.686;10.842;2022-07-06T13:21:49;4.85;;;1.10;;
23290;SDS011;11814;44.686;10.842;2022-07-06T13:24:15;4.95;;;0.95;;
23290;SDS011;11814;44.686;10.842;2022-07-06T13:26:40;2.75;;;1.00;;
23290;SDS011;11814;44.686;10.842;2022-07-06T13:29:09;2.67;;;1.02;;
23290;SDS011;11814;44.686;10.842;2022-07-06T13:31:41;5.03;;;1.30;;
23290;SDS011;11814;44.686;10.842;2022-07-06T13:34:12;3.97;;;1.20;;
23290;SDS011;11814;44.686;10.842;2022-07-06T13:36:43;4.45;;;1.05;;
23290;SDS011;11814;44.686;10.842;2022-07-06T13:39:09;6.82;;;1.20;;
23290;SDS011;11814;44.686;10.842;2022-07-06T13:41:38;3.28;;;1.10;;
23290;SDS011;11814;44.686;10.842;2022-07-06T13:44:29;4.00;;;0.95;;
23290;SDS011;11814;44.686;10.842;2022-07-06T13:46:55;3.33;;;0.82;;
23290;SDS011;11814;44.686;10.842;2022-07-06T13:49:21;2.90;;;0.80;;
23290;SDS011;11814;44.686;10.842;2022-07-06T13:51:46;3.58;;;0.88;;
23290;SDS011;11814;44.686;10.842;2022-07-06T13:54:13;3.05;;;0.80;;
23290;SDS011;11814;44.686;10.842;2022-07-06T13:56:41;4.43;;;0.90;;
23290;SDS011;11814;44.686;10.842;2022-07-06T13:59:10;3.53;;;1.00;;
23290;SDS011;11814;44.686;10.842;2022-07-06T14:01:36;2.83;;;0.85;;
23290;SDS011;11814;44.686;10.842;2022-07-06T14:04:07;2.15;;;0.75;;
23290;SDS011;11814;44.686;10.842;2022-07-06T14:06:35;2.00;;;1.08;;
23290;SDS011;11814;44.686;10.842;2022-07-06T14:09:04;2.58;;;1.00;;
23290;SDS011;11814;44.686;10.842;2022-07-06T14:11:36;4.32;;;0.88;;
23290;SDS011;11814;44.686;10.842;2022-07-06T14:14:04;3.42;;;1.10;;
23290;SDS011;11814;44.686;10.842;2022-07-06T14:16:32;2.55;;;1.00;;
23290;SDS011;11814;44.686;10.842;2022-07-06T14:19:00;2.95;;;0.85;;
23290;SDS011;11814;44.686;10.842;2022-07-06T14:21:29;5.93;;;1.00;;
23290;SDS011;11814;44.686;10.842;2022-07-06T14:23:55;2.70;;;1.10;;
23290;SDS011;11814;44.686;10.842;2022-07-06T14:26:21;2.80;;;0.95;;
23290;SDS011;11814;44.686;10.842;2022-07-06T14:28:49;2.08;;;1.00;;
23290;SDS011;11814;44.686;10.842;2022-07-06T14:31:18;2.33;;;1.20;;
23290;SDS011;11814;44.686;10.842;2022-07-06T14:33:43;1.83;;;0.82;;
23290;SDS011;11814;44.686;10.842;2022-07-06T14:36:18;2.78;;;1.10;;
23290;SDS011;11814;44.686;10.842;2022-07-06T14:38:50;2.60;;;1.00;;
23290;SDS011;11814;44.686;10.842;2022-07-06T14:41:28;4.72;;;1.10;;
23290;SDS011;11814;44.686;10.842;2022-07-06T14:43:58;3.42;;;1.00;;
23290;SDS011;11814;44.686;10.842;2022-07-06T14:46:33;2.35;;;1.05;;
23290;SDS011;11814;44.686;10.842;2022-07-06T14:49:04;6.57;;;1.15;;
23290;SDS011;11814;44.686;10.842;2022-07-06T14:51:32;2.78;;;1.15;;
23290;SDS011;11814;44.686;10.842;2022-07-06T14:53:58;3.58;;;1.10;;
23290;SDS011;11814;44.686;10.842;2022-07-06T14:56:27;3.22;;;1.20;;
23290;SDS011;11814;44.686;10.842;2022-07-06T14:58:56;4.25;;;0.98;;
23290;SDS011;11814;44.686;10.842;2022-07-06T15:01:27;1.70;;;1.20;;